Time;durP1;ratioP1;P1;durP2;ratioP2;P2;SDS_P1;SDS_P2;PMS_P1;PMS_P2;Temp;Humidity;BMP_temperature;BMP_pressure;BME280_temperature;BME280_humidity;BME280_pressure;Samples;Min_cycle;Max_cycle;Signal;HPM_P1;HPM_P2
2021/11/15 00:00:58;;;;;;;45.70;23.97;;;;;;;5.18;100.00;102297.66;5017952;28;20039;-83
2021/11/15 00:03:28;;;;;;;42.50;20.53;;;;;;;5.18;100.00;102300.28;5033108;28;20053;-84
2021/11/15 00:05:55;;;;;;;42.73;22.13;;;;;;;5.14;100.00;102286.22;5037119;28;20038;-83
2021/11/15 00:08:22;;;;;;;43.87;22.47;;;;;;;5.25;100.00;102291.75;5013855;28;20049;-84
2021/11/15 00:10:50;;;;;;;50.83;23.30;;;;;;;5.21;100.00;102285.56;5036804;28;20505;-83
2021/11/15 00:13:20;;;;;;;47.53;23.33;;;;;;;5.25;100.00;102283.91;5048893;28;20045;-84
2021/11/15 00:15:48;;;;;;;44.73;23.27;;;;;;;5.23;100.00;102278.63;5027354;28;20033;-83
2021/11/15 00:18:19;;;;;;;41.53;20.93;;;;;;;5.24;100.00;102290.00;5026824;28;20050;-83
2021/11/15 00:20:46;;;;;;;40.10;20.23;;;;;;;5.24;100.00;102279.50;5044476;28;20049;-82
2021/11/15 00:23:15;;;;;;;42.33;22.70;;;;;;;5.22;100.00;102279.47;5006787;28;20380;-83
2021/11/15 00:25:42;;;;;;;41.20;19.97;;;;;;;5.17;100.00;102282.81;5018024;28;20048;-82
2021/11/15 00:28:10;;;;;;;43.30;22.23;;;;;;;5.24;100.00;102290.00;5048068;28;20034;-84
2021/11/15 00:30:37;;;;;;;45.57;22.13;;;;;;;5.25;100.00;102287.41;5019977;28;20057;-83
2021/11/15 00:33:04;;;;;;;43.23;22.73;;;;;;;5.16;100.00;102288.88;5033036;28;20124;-84
2021/11/15 00:35:34;;;;;;;40.83;20.47;;;;;;;5.15;100.00;102297.59;5041576;28;20045;-83
2021/11/15 00:38:05;;;;;;;43.53;22.07;;;;;;;5.20;100.00;102289.00;5027048;28;20105;-83
2021/11/15 00:40:32;;;;;;;42.07;22.50;;;;;;;5.23;100.00;102288.22;5044457;28;20449;-82
2021/11/15 00:43:06;;;;;;;40.53;20.20;;;;;;;5.24;100.00;102290.88;5019833;28;20040;-83
2021/11/15 00:45:35;;;;;;;46.97;23.13;;;;;;;5.17;100.00;102288.94;5045317;28;20038;-84
2021/11/15 00:48:05;;;;;;;45.60;22.33;;;;;;;5.20;100.00;102293.34;5037338;28;20068;-83
2021/11/15 00:50:38;;;;;;;41.13;21.83;;;;;;;5.27;100.00;102295.31;5017450;28;20038;-83
2021/11/15 00:53:10;;;;;;;44.93;23.53;;;;;;;5.33;100.00;102301.59;5018390;28;20037;-83
2021/11/15 00:55:40;;;;;;;39.83;21.83;;;;;;;5.24;100.00;102305.72;5044949;28;20132;-83
2021/11/15 00:58:09;;;;;;;42.60;23.80;;;;;;;5.19;100.00;102291.59;5030590;28;20577;-84
2021/11/15 01:00:41;;;;;;;36.47;21.33;;;;;;;5.15;100.00;102294.97;5037534;28;20040;-83
2021/11/15 01:03:11;;;;;;;38.23;21.60;;;;;;;5.22;100.00;102294.31;5022777;28;20047;-83
2021/11/15 01:05:48;;;;;;;41.03;22.33;;;;;;;5.25;100.00;102290.03;5037478;28;20076;-84
2021/11/15 01:08:17;;;;;;;41.35;21.88;;;;;;;5.17;100.00;102288.94;5020117;28;20053;-83
2021/11/15 01:10:52;;;;;;;37.77;19.77;;;;;;;5.11;100.00;102290.47;5045940;28;20045;-83
2021/11/15 01:13:23;;;;;;;41.83;21.63;;;;;;;5.23;100.00;102288.22;5014496;28;20410;-83
2021/11/15 01:15:53;;;;;;;41.38;22.42;;;;;;;5.16;100.00;102291.50;5060266;28;20513;-83
2021/11/15 01:18:25;;;;;;;38.47;22.30;;;;;;;5.13;100.00;102291.41;5014373;28;20104;-83
2021/11/15 01:20:52;;;;;;;40.17;20.93;;;;;;;5.12;100.00;102295.75;5013200;28;20486;-83
2021/11/15 01:23:19;;;;;;;38.97;19.97;;;;;;;5.27;100.00;102290.94;5037265;28;20072;-83
2021/11/15 01:25:46;;;;;;;42.00;21.13;;;;;;;5.12;100.00;102292.25;5037678;28;20034;-83
2021/11/15 01:28:13;;;;;;;40.60;21.87;;;;;;;5.25;100.00;102297.88;5032102;28;20487;-83
2021/11/15 01:30:41;;;;;;;38.40;21.30;;;;;;;5.13;100.00;102296.63;5026404;28;20041;-83
2021/11/15 01:33:08;;;;;;;41.50;20.40;;;;;;;5.14;100.00;102304.56;5029667;28;20409;-84
2021/11/15 01:35:35;;;;;;;43.07;22.57;;;;;;;5.31;100.00;102305.03;5043864;28;21498;-85
2021/11/15 01:38:02;;;;;;;46.53;23.13;;;;;;;5.39;100.00;102306.13;5033422;28;20047;-83
2021/11/15 01:40:31;;;;;;;40.53;21.80;;;;;;;5.20;100.00;102306.44;5022404;28;20058;-86
2021/11/15 01:42:58;;;;;;;38.37;21.50;;;;;;;5.25;100.00;102313.59;5030372;28;20526;-84
2021/11/15 01:45:27;;;;;;;45.37;21.37;;;;;;;5.46;100.00;102308.03;5029223;28;20046;-83
2021/11/15 01:47:57;;;;;;;43.57;22.77;;;;;;;5.42;100.00;102307.94;5047863;28;20041;-84
2021/11/15 01:50:24;;;;;;;44.60;22.63;;;;;;;5.39;100.00;102308.75;5031193;28;20037;-84
2021/11/15 01:52:52;;;;;;;47.37;24.23;;;;;;;5.41;100.00;102306.16;5017544;28;20450;-84
2021/11/15 01:55:20;;;;;;;43.27;22.87;;;;;;;5.46;100.00;102299.28;5028481;28;20095;-84
2021/11/15 01:57:48;;;;;;;41.73;21.90;;;;;;;5.35;100.00;102299.03;5012573;28;20054;-84
2021/11/15 02:00:47;;;;;;;44.03;22.17;;;;;;;5.53;100.00;102296.88;5028176;28;20045;-84
2021/11/15 02:03:16;;;;;;;41.50;21.73;;;;;;;5.46;100.00;102296.69;5041407;28;20173;-84
2021/11/15 02:05:43;;;;;;;41.93;22.50;;;;;;;5.48;100.00;102301.13;5029543;28;20483;-84
2021/11/15 02:08:10;;;;;;;39.40;22.53;;;;;;;5.60;100.00;102297.94;5012565;28;20506;-84
2021/11/15 02:10:37;;;;;;;40.33;22.63;;;;;;;5.45;100.00;102295.78;5013137;28;20414;-84
2021/11/15 02:13:04;;;;;;;39.20;22.20;;;;;;;5.57;100.00;102297.88;5022413;28;20044;-84
2021/11/15 02:15:31;;;;;;;43.10;20.57;;;;;;;5.63;100.00;102301.53;5026647;28;20045;-84
2021/11/15 02:17:57;;;;;;;40.83;22.57;;;;;;;5.61;100.00;102290.09;5032750;28;20045;-84
2021/11/15 02:20:26;;;;;;;38.03;21.57;;;;;;;5.52;100.00;102289.88;5031693;28;20095;-85
2021/11/15 02:22:54;;;;;;;42.53;21.77;;;;;;;5.47;100.00;102294.13;5049170;28;20380;-84
2021/11/15 02:25:24;;;;;;;44.17;21.70;;;;;;;5.54;100.00;102287.28;5031670;28;20045;-84
2021/11/15 02:27:53;;;;;;;38.33;21.67;;;;;;;5.59;100.00;102285.69;5056116;28;20045;-83
2021/11/15 02:30:22;;;;;;;38.33;21.37;;;;;;;5.45;100.00;102285.31;5036893;28;20593;-84
2021/11/15 02:32:49;;;;;;;38.37;20.87;;;;;;;5.45;100.00;102289.66;5062327;28;20046;-84
2021/11/15 02:35:16;;;;;;;41.83;21.50;;;;;;;5.43;100.00;102288.75;5056613;28;20048;-84
2021/11/15 02:37:45;;;;;;;44.17;22.90;;;;;;;5.54;100.00;102292.53;5049033;28;20041;-84
2021/11/15 02:40:14;;;;;;;37.73;19.87;;;;;;;5.52;100.00;102283.75;5043012;28;20045;-85
2021/11/15 02:42:41;;;;;;;35.90;20.23;;;;;;;5.42;100.00;102289.59;4997238;28;20049;-84
2021/11/15 02:45:10;;;;;;;39.77;20.07;;;;;;;5.52;100.00;102282.00;5013474;28;20061;-85
2021/11/15 02:47:37;;;;;;;41.90;20.30;;;;;;;5.59;100.00;102275.19;5054342;28;20052;-84
2021/11/15 02:50:05;;;;;;;40.03;20.30;;;;;;;5.52;99.63;102281.13;5021719;28;20534;-84
2021/11/15 02:52:32;;;;;;;37.87;20.40;;;;;;;5.55;100.00;102276.88;4996871;28;20050;-84
2021/11/15 02:54:59;;;;;;;38.10;20.00;;;;;;;5.44;100.00;102285.28;5041357;28;20543;-85
2021/11/15 02:57:27;;;;;;;38.13;18.77;;;;;;;5.56;99.31;102273.38;5048503;28;20041;-85
2021/11/15 02:59:53;;;;;;;36.17;20.20;;;;;;;5.47;99.69;102275.78;5022370;28;20056;-85
2021/11/15 03:02:24;;;;;;;38.40;19.77;;;;;;;5.53;100.00;102283.78;5046745;28;20033;-84
2021/11/15 03:04:51;;;;;;;34.27;19.00;;;;;;;5.54;100.00;102280.31;5038934;28;20401;-84
2021/11/15 03:07:18;;;;;;;37.03;17.63;;;;;;;5.51;100.00;102277.63;5031099;28;20502;-86
2021/11/15 03:09:44;;;;;;;37.13;19.07;;;;;;;5.56;100.00;102268.16;5048222;28;20064;-84
2021/11/15 03:12:12;;;;;;;36.03;20.10;;;;;;;5.46;99.74;102276.59;5032366;28;20049;-84
2021/11/15 03:14:39;;;;;;;37.70;19.47;;;;;;;5.58;100.00;102276.03;5046084;28;20045;-84
2021/11/15 03:17:06;;;;;;;38.30;20.33;;;;;;;5.55;98.73;102284.72;5029347;28;20042;-86
2021/11/15 03:19:33;;;;;;;35.80;19.47;;;;;;;5.63;98.18;102272.69;5019761;28;20045;-84
2021/11/15 03:22:00;;;;;;;44.70;20.17;;;;;;;5.56;100.00;102276.00;5032000;28;20133;-84
2021/11/15 03:24:26;;;;;;;32.80;18.10;;;;;;;5.60;97.79;102277.84;5047180;28;20088;-84
2021/11/15 03:26:53;;;;;;;35.17;19.63;;;;;;;5.59;97.69;102276.06;5023353;28;20042;-84
2021/11/15 03:29:20;;;;;;;33.57;18.03;;;;;;;5.56;100.00;102278.63;5031075;28;20048;-86
2021/11/15 03:31:47;;;;;;;33.07;17.27;;;;;;;5.55;100.00;102283.81;5040249;28;20495;-84
2021/11/15 03:34:14;;;;;;;37.03;19.60;;;;;;;5.47;100.00;102277.50;5036800;28;20052;-84
2021/11/15 03:36:43;;;;;;;40.27;22.30;;;;;;;5.61;100.00;102279.63;5048873;28;20094;-84
2021/11/15 03:39:11;;;;;;;35.50;17.83;;;;;;;5.51;100.00;102290.72;5030922;28;20042;-84
2021/11/15 03:41:39;;;;;;;36.07;19.37;;;;;;;5.63;100.00;102290.13;5047881;28;20053;-83
2021/11/15 03:44:07;;;;;;;37.23;19.87;;;;;;;5.57;100.00;102290.00;5033272;28;20053;-83
2021/11/15 03:46:34;;;;;;;34.23;18.13;;;;;;;5.50;100.00;102288.94;5010651;28;20124;-84
2021/11/15 03:49:01;;;;;;;35.30;19.13;;;;;;;5.41;100.00;102291.34;5003998;28;20053;-84
2021/11/15 03:51:28;;;;;;;37.23;20.07;;;;;;;5.45;100.00;102295.78;5031968;28;20089;-84
2021/11/15 03:53:55;;;;;;;39.73;20.30;;;;;;;5.53;100.00;102290.75;5014297;28;20044;-84
2021/11/15 03:56:26;;;;;;;36.20;17.77;;;;;;;5.45;100.00;102301.03;5016135;28;20053;-84
2021/11/15 03:58:54;;;;;;;41.20;20.80;;;;;;;5.55;100.00;102302.16;5014567;28;20391;-84
2021/11/15 04:01:25;;;;;;;38.80;19.80;;;;;;;5.45;100.00;102302.78;5025876;28;20049;-84
2021/11/15 04:03:54;;;;;;;39.40;22.80;;;;;;;5.53;100.00;102299.50;5027983;28;20034;-84
2021/11/15 04:06:25;;;;;;;38.20;18.73;;;;;;;5.43;100.00;102302.72;5013829;28;20060;-85
2021/11/15 04:08:54;;;;;;;40.33;20.43;;;;;;;5.57;100.00;102300.50;5029596;28;20052;-85
2021/11/15 04:11:22;;;;;;;37.13;21.13;;;;;;;5.61;100.00;102308.47;5015807;28;20410;-84
2021/11/15 04:13:51;;;;;;;40.03;21.07;;;;;;;5.59;100.00;102301.41;5014096;28;20041;-84
2021/11/15 04:16:19;;;;;;;40.50;21.03;;;;;;;5.53;100.00;102304.75;5015872;28;20042;-84
2021/11/15 04:18:50;;;;;;;43.17;22.53;;;;;;;5.48;100.00;102300.25;5014232;28;20041;-83
2021/11/15 04:21:17;;;;;;;38.33;20.50;;;;;;;5.49;100.00;102300.28;5031507;28;20042;-84
2021/11/15 04:23:44;;;;;;;39.47;21.27;;;;;;;5.31;100.00;102303.31;5029897;28;20454;-84
2021/11/15 04:26:11;;;;;;;41.37;20.10;;;;;;;5.37;100.00;102292.06;5018755;28;20064;-84
2021/11/15 04:28:38;;;;;;;38.53;20.23;;;;;;;5.52;100.00;102307.34;5006617;28;20048;-83
2021/11/15 04:31:05;;;;;;;41.60;22.40;;;;;;;5.42;100.00;102303.59;5025817;28;20457;-83
2021/11/15 04:33:32;;;;;;;39.60;22.23;;;;;;;5.44;100.00;102301.88;5007212;28;20046;-85
2021/11/15 04:35:59;;;;;;;40.10;20.87;;;;;;;5.45;100.00;102298.41;5040548;22;20112;-83
2021/11/15 04:38:26;;;;;;;41.83;21.17;;;;;;;5.54;100.00;102295.16;4980411;28;20053;-83
2021/11/15 04:40:52;;;;;;;39.30;21.50;;;;;;;5.51;100.00;102300.31;4989656;28;20100;-84
2021/11/15 04:43:19;;;;;;;34.93;19.47;;;;;;;5.54;100.00;102295.16;4996044;28;20138;-86
2021/11/15 04:45:46;;;;;;;37.40;20.00;;;;;;;5.51;100.00;102293.34;5015090;28;20042;-81
2021/11/15 04:48:12;;;;;;;36.33;18.13;;;;;;;5.52;100.00;102287.25;5020256;28;20065;-84
2021/11/15 04:50:39;;;;;;;41.90;19.47;;;;;;;5.48;100.00;102285.41;5012562;28;20046;-84
2021/11/15 04:53:06;;;;;;;32.07;17.23;;;;;;;5.46;100.00;102296.69;5004330;28;20045;-82
2021/11/15 04:55:34;;;;;;;35.00;19.77;;;;;;;5.35;100.00;102294.66;5000908;28;20053;-85
2021/11/15 04:58:01;;;;;;;36.63;18.77;;;;;;;5.43;100.00;102288.75;4991935;28;20073;-86
2021/11/15 05:00:30;;;;;;;36.13;18.33;;;;;;;5.45;100.00;102290.56;5007366;28;20407;-83
2021/11/15 05:02:57;;;;;;;35.80;19.67;;;;;;;5.44;100.00;102285.28;5018718;28;20614;-82
2021/11/15 05:05:24;;;;;;;37.77;19.73;;;;;;;5.37;100.00;102297.31;4983573;28;20038;-81
2021/11/15 05:07:53;;;;;;;33.97;17.07;;;;;;;5.44;100.00;102283.53;5013358;28;20042;-82
2021/11/15 05:10:22;;;;;;;34.63;18.07;;;;;;;5.43;100.00;102294.88;4993401;28;20042;-82
2021/11/15 05:12:49;;;;;;;33.60;17.27;;;;;;;5.41;100.00;102287.81;5005479;28;20037;-82
2021/11/15 05:15:19;;;;;;;38.30;20.27;;;;;;;5.41;100.00;102293.06;4986908;28;20047;-82
2021/11/15 05:17:50;;;;;;;33.80;17.30;;;;;;;5.39;100.00;102289.53;4993595;28;20042;-82
2021/11/15 05:20:17;;;;;;;38.50;18.03;;;;;;;5.42;100.00;102295.72;5017139;28;20054;-82
2021/11/15 05:22:44;;;;;;;33.93;18.57;;;;;;;5.39;100.00;102295.66;5010411;28;20046;-82
2021/11/15 05:25:13;;;;;;;28.30;16.63;;;;;;;5.25;100.00;102297.88;4999996;28;20507;-82
2021/11/15 05:27:39;;;;;;;27.93;15.23;;;;;;;5.41;100.00;102296.56;4994884;28;20045;-83
2021/11/15 05:30:08;;;;;;;32.40;18.80;;;;;;;5.34;100.00;102297.25;4989823;28;20450;-82
2021/11/15 05:32:35;;;;;;;35.23;17.60;;;;;;;5.26;100.00;102297.03;5010260;28;20030;-82
2021/11/15 05:35:03;;;;;;;31.33;17.00;;;;;;;5.32;100.00;102291.09;4976482;28;20061;-83
2021/11/15 05:37:30;;;;;;;30.57;16.07;;;;;;;5.35;100.00;102288.53;4993761;28;20136;-82
2021/11/15 05:39:56;;;;;;;28.57;15.57;;;;;;;5.35;100.00;102281.56;4992854;28;20068;-82
2021/11/15 05:42:23;;;;;;;29.30;16.63;;;;;;;5.30;100.00;102285.81;4977814;28;20041;-83
2021/11/15 05:44:50;;;;;;;30.97;15.90;;;;;;;5.20;100.00;102286.38;4976613;28;20506;-84
2021/11/15 05:47:16;;;;;;;33.20;16.07;;;;;;;5.31;100.00;102289.31;5002719;28;20173;-82
2021/11/15 05:49:44;;;;;;;30.70;15.53;;;;;;;5.39;100.00;102289.53;4993637;28;20406;-82
2021/11/15 05:52:11;;;;;;;32.33;17.07;;;;;;;5.25;100.00;102295.25;4977016;28;20211;-81
2021/11/15 05:54:38;;;;;;;34.93;18.23;;;;;;;5.34;100.00;102289.38;4991880;28;20046;-82
2021/11/15 05:57:07;;;;;;;31.07;17.00;;;;;;;5.27;100.00;102292.69;4994455;28;20046;-82
2021/11/15 05:59:33;;;;;;;35.03;18.57;;;;;;;5.19;100.00;102297.72;5008693;28;20505;-82
2021/11/15 06:02:00;;;;;;;33.53;17.03;;;;;;;5.33;100.00;102298.97;4984631;28;20503;-82
2021/11/15 06:04:27;;;;;;;33.43;16.00;;;;;;;5.32;100.00;102299.84;4989573;28;20046;-84
2021/11/15 06:06:53;;;;;;;33.20;16.60;;;;;;;5.35;100.00;102292.03;4978016;28;20038;-82
2021/11/15 06:09:20;;;;;;;32.57;17.40;;;;;;;5.29;100.00;102304.09;4992805;28;20100;-81
2021/11/15 06:11:47;;;;;;;36.13;19.20;;;;;;;5.28;100.00;102302.31;4992218;28;20042;-83
2021/11/15 06:14:13;;;;;;;36.27;18.97;;;;;;;5.38;100.00;102309.56;4978136;28;20049;-81
2021/11/15 06:16:40;;;;;;;37.10;19.40;;;;;;;5.24;100.00;102310.94;4976886;28;20042;-82
2021/11/15 06:19:06;;;;;;;35.33;17.83;;;;;;;5.25;100.00;102308.38;4992409;28;20046;-82
2021/11/15 06:21:33;;;;;;;35.07;17.40;;;;;;;5.24;100.00;102316.19;4994188;28;20042;-82
2021/11/15 06:24:01;;;;;;;36.00;19.20;;;;;;;5.21;100.00;102311.75;4989676;28;20034;-82
2021/11/15 06:26:29;;;;;;;33.43;18.37;;;;;;;5.32;100.00;102317.28;4996524;28;20046;-85
2021/11/15 06:28:56;;;;;;;33.83;18.30;;;;;;;5.37;100.00;102308.69;5003448;28;20517;-81
2021/11/15 06:31:23;;;;;;;39.07;17.67;;;;;;;5.29;100.00;102319.81;4977822;28;20065;-82
2021/11/15 06:33:50;;;;;;;32.67;18.37;;;;;;;5.20;100.00;102324.78;4993047;28;20398;-82
2021/11/15 06:36:18;;;;;;;35.50;18.17;;;;;;;5.31;100.00;102326.88;5000934;28;20052;-82
2021/11/15 06:38:45;;;;;;;37.30;18.87;;;;;;;5.27;100.00;102321.50;4988986;28;20438;-84
2021/11/15 06:41:12;;;;;;;43.37;20.00;;;;;;;5.20;100.00;102330.03;4989337;28;20109;-82
2021/11/15 06:43:39;;;;;;;33.80;18.30;;;;;;;5.20;100.00;102327.41;5008337;28;20053;-82
2021/11/15 06:46:05;;;;;;;35.77;18.47;;;;;;;5.12;100.00;102326.31;5026677;28;20045;-83
2021/11/15 06:48:37;;;;;;;36.07;17.57;;;;;;;5.12;100.00;102331.56;4996003;28;20046;-83
2021/11/15 06:51:04;;;;;;;31.60;16.90;;;;;;;5.19;100.00;102330.88;5009309;28;20050;-83
2021/11/15 06:53:31;;;;;;;33.47;18.43;;;;;;;5.25;100.00;102317.97;5011558;28;20042;-82
2021/11/15 06:55:59;;;;;;;34.97;17.03;;;;;;;5.32;100.00;102327.78;4997590;28;20140;-83
2021/11/15 06:58:27;;;;;;;34.87;17.63;;;;;;;5.30;100.00;102330.34;5011647;28;20140;-84
2021/11/15 07:00:56;;;;;;;34.77;18.83;;;;;;;5.29;100.00;102327.66;4993591;28;20091;-83
2021/11/15 07:03:23;;;;;;;31.53;17.13;;;;;;;5.22;100.00;102331.88;5012403;28;20483;-82
2021/11/15 07:05:50;;;;;;;37.10;17.53;;;;;;;5.16;100.00;102336.06;5008137;28;20414;-83
2021/11/15 07:08:16;;;;;;;35.23;19.57;;;;;;;5.32;100.00;102325.16;4976627;28;20112;-85
2021/11/15 07:10:43;;;;;;;37.00;18.27;;;;;;;5.29;100.00;102330.28;4978091;28;20069;-82
2021/11/15 07:13:13;;;;;;;39.97;19.73;;;;;;;5.23;100.00;102335.38;4995703;28;20046;-84
2021/11/15 07:15:41;;;;;;;39.73;20.07;;;;;;;5.25;100.00;102328.44;5026156;28;20045;-82
2021/11/15 07:18:10;;;;;;;35.87;17.90;;;;;;;5.24;100.00;102334.53;4986795;28;20745;-84
2021/11/15 07:20:37;;;;;;;39.23;19.33;;;;;;;5.29;100.00;102335.53;4963821;28;20494;-82
2021/11/15 07:23:04;;;;;;;36.13;17.50;;;;;;;5.18;100.00;102331.72;4979278;28;20484;-82
2021/11/15 07:25:31;;;;;;;38.43;19.83;;;;;;;5.14;100.00;102337.75;4978568;28;20045;-84
2021/11/15 07:27:58;;;;;;;40.70;18.27;;;;;;;5.16;100.00;102336.94;4990375;28;20395;-82
2021/11/15 07:30:26;;;;;;;34.43;17.30;;;;;;;5.09;100.00;102341.09;4987380;28;20046;-82
2021/11/15 07:32:53;;;;;;;37.63;18.77;;;;;;;5.12;100.00;102335.06;4977908;28;20053;-82
2021/11/15 07:35:20;;;;;;;37.37;18.27;;;;;;;5.18;100.00;102340.47;4996512;28;20054;-83
2021/11/15 07:37:47;;;;;;;35.73;19.00;;;;;;;5.25;100.00;102336.31;4989005;28;20052;-81
2021/11/15 07:40:15;;;;;;;31.00;16.67;;;;;;;5.37;100.00;102334.00;4980214;28;20503;-82
2021/11/15 07:42:42;;;;;;;34.30;17.03;;;;;;;5.25;100.00;102331.94;5013380;28;20038;-82
2021/11/15 07:45:09;;;;;;;31.13;16.03;;;;;;;5.18;100.00;102331.72;5011985;28;20056;-83
2021/11/15 07:47:36;;;;;;;31.93;17.40;;;;;;;5.24;100.00;102338.03;5012874;28;20566;-82
2021/11/15 07:50:04;;;;;;;28.67;15.70;;;;;;;5.15;100.00;102329.94;4995800;28;20411;-81
2021/11/15 07:52:31;;;;;;;28.37;16.10;;;;;;;5.08;100.00;102339.34;4987704;28;20053;-82
2021/11/15 07:55:01;;;;;;;27.80;16.17;;;;;;;5.17;100.00;102338.72;4999075;28;20052;-82
2021/11/15 07:57:28;;;;;;;29.13;15.97;;;;;;;5.28;100.00;102333.75;4997017;28;20053;-83
2021/11/15 07:59:54;;;;;;;31.97;15.77;;;;;;;5.19;100.00;102334.38;4979760;28;20061;-83
2021/11/15 08:02:22;;;;;;;28.67;15.97;;;;;;;5.20;100.00;102343.13;4989037;28;20053;-82
2021/11/15 08:04:49;;;;;;;28.33;15.60;;;;;;;5.34;100.00;102349.66;4999781;28;20044;-82
2021/11/15 08:07:16;;;;;;;27.17;15.03;;;;;;;5.28;100.00;102342.50;4995750;28;20057;-82
2021/11/15 08:09:43;;;;;;;29.67;17.77;;;;;;;5.37;100.00;102341.88;4960382;28;20050;-83
2021/11/15 08:12:11;;;;;;;28.90;17.00;;;;;;;5.25;100.00;102345.06;4961252;28;20046;-82
2021/11/15 08:14:39;;;;;;;32.37;17.30;;;;;;;5.32;100.00;102346.13;4975548;28;20401;-82
2021/11/15 08:17:09;;;;;;;31.27;16.00;;;;;;;5.34;100.00;102350.56;4980439;28;20096;-84
2021/11/15 08:19:36;;;;;;;33.27;16.57;;;;;;;5.20;100.00;102351.00;4994918;28;20446;-82
2021/11/15 08:22:03;;;;;;;29.30;15.40;;;;;;;5.25;100.00;102352.03;5017021;28;20033;-83
2021/11/15 08:25:07;;;;;;;25.73;14.90;;;;;;;5.21;100.00;102343.22;4997707;28;20046;-82
2021/11/15 08:27:34;;;;;;;32.10;16.07;;;;;;;5.28;100.00;102344.25;4995875;28;20041;-82
2021/11/15 08:30:01;;;;;;;29.83;15.63;;;;;;;5.19;100.00;102339.63;4979389;28;20069;-84
2021/11/15 08:32:27;;;;;;;25.73;13.03;;;;;;;5.27;100.00;102340.72;4994408;28;20042;-81
2021/11/15 08:34:58;;;;;;;24.70;12.77;;;;;;;5.23;100.00;102340.63;4980544;28;20510;-82
2021/11/15 08:37:25;;;;;;;26.30;12.57;;;;;;;5.19;100.00;102341.38;4992872;28;20046;-81
2021/11/15 08:39:52;;;;;;;24.90;14.33;;;;;;;5.25;100.00;102349.41;4991533;28;20050;-82
2021/11/15 08:42:18;;;;;;;25.63;13.87;;;;;;;5.23;100.00;102338.88;5016819;28;20654;-82
2021/11/15 08:44:54;;;;;;;25.50;14.07;;;;;;;5.26;100.00;102338.06;4997610;28;20037;-83
2021/11/15 08:47:22;;;;;;;22.00;12.20;;;;;;;5.18;100.00;102331.72;5003563;28;20058;-82
2021/11/15 08:49:49;;;;;;;19.83;11.67;;;;;;;5.31;100.00;102328.63;4991555;28;20057;-82
2021/11/15 08:52:16;;;;;;;23.10;12.40;;;;;;;5.28;100.00;102331.13;5011430;28;20557;-83
2021/11/15 08:54:47;;;;;;;20.83;12.03;;;;;;;5.36;100.00;102319.13;5002438;28;20038;-82
2021/11/15 08:57:14;;;;;;;21.10;10.83;;;;;;;5.19;100.00;102318.66;4982426;28;20046;-82
2021/11/15 08:59:53;;;;;;;21.63;11.07;;;;;;;5.32;100.00;102314.66;4988357;28;20140;-82
2021/11/15 09:02:31;;;;;;;20.50;11.63;;;;;;;5.23;100.00;102322.28;4998862;28;20049;-82
2021/11/15 09:05:08;;;;;;;21.13;12.00;;;;;;;5.30;100.00;102322.50;4982797;28;20069;-83
2021/11/15 09:07:41;;;;;;;22.37;12.30;;;;;;;5.23;100.00;102328.41;5008408;28;20042;-82
2021/11/15 09:10:11;;;;;;;18.17;11.07;;;;;;;5.24;100.00;102337.16;5002077;28;20037;-83
2021/11/15 09:12:39;;;;;;;18.47;10.90;;;;;;;5.44;100.00;102341.19;5003618;28;20042;-82
2021/11/15 09:15:07;;;;;;;17.87;10.10;;;;;;;5.46;100.00;102341.25;4992809;28;20411;-81
2021/11/15 09:17:35;;;;;;;19.17;10.87;;;;;;;5.47;100.00;102337.81;5013852;28;20045;-82
2021/11/15 09:20:02;;;;;;;16.57;10.73;;;;;;;5.39;100.00;102337.59;4983258;28;20052;-83
2021/11/15 09:22:29;;;;;;;19.93;10.67;;;;;;;5.45;100.00;102340.34;4980867;28;20162;-82
2021/11/15 09:24:56;;;;;;;19.17;11.57;;;;;;;5.49;100.00;102331.75;4980721;28;20085;-81
2021/11/15 09:27:24;;;;;;;19.53;9.83;;;;;;;5.42;100.00;102340.28;4996743;28;20521;-82
2021/11/15 09:29:51;;;;;;;16.77;9.87;;;;;;;5.46;100.00;102341.25;4992518;28;20511;-82
2021/11/15 09:32:20;;;;;;;20.80;10.17;;;;;;;5.46;100.00;102349.97;4978948;28;20058;-82
2021/11/15 09:34:47;;;;;;;19.23;10.27;;;;;;;5.45;100.00;102356.06;4995902;28;20044;-84
2021/11/15 09:37:15;;;;;;;18.60;10.57;;;;;;;5.34;100.00;102357.53;4992980;28;20105;-81
2021/11/15 09:39:44;;;;;;;17.50;10.63;;;;;;;5.45;100.00;102348.22;4976666;28;20082;-81
2021/11/15 09:42:12;;;;;;;18.63;9.83;;;;;;;5.50;100.00;102350.97;4992976;28;20137;-83
2021/11/15 09:44:42;;;;;;;18.63;9.47;;;;;;;5.29;100.00;102349.53;5006055;28;20535;-84
2021/11/15 09:47:09;;;;;;;17.00;9.10;;;;;;;5.28;100.00;102350.38;4979119;28;20052;-85
2021/11/15 09:49:37;;;;;;;18.00;10.23;;;;;;;5.30;100.00;102353.94;4979307;28;20042;-81
2021/11/15 09:52:05;;;;;;;19.50;11.13;;;;;;;5.43;100.00;102344.66;4996525;28;20112;-82
2021/11/15 09:54:32;;;;;;;16.60;10.13;;;;;;;5.47;100.00;102336.06;4994192;28;20045;-82
2021/11/15 09:56:59;;;;;;;16.60;9.67;;;;;;;5.54;100.00;102331.84;4994788;28;20046;-82
2021/11/15 09:59:28;;;;;;;15.83;9.90;;;;;;;5.54;100.00;102329.22;4993312;28;20050;-83
2021/11/15 10:01:56;;;;;;;18.40;9.73;;;;;;;5.47;100.00;102322.97;4979213;28;20458;-82
2021/11/15 10:04:25;;;;;;;18.20;10.47;;;;;;;5.44;100.00;102325.47;4976117;28;20042;-81
2021/11/15 10:06:54;;;;;;;19.80;10.30;;;;;;;5.62;100.00;102331.19;4976929;28;20054;-85
2021/11/15 10:09:32;;;;;;;17.83;9.33;;;;;;;5.62;100.00;102323.34;4992074;28;20092;-81
2021/11/15 10:12:07;;;;;;;15.50;8.83;;;;;;;5.61;100.00;102325.94;4993461;28;20046;-81
2021/11/15 10:14:34;;;;;;;18.77;9.37;;;;;;;5.53;100.00;102320.47;4977349;28;20038;-83
2021/11/15 10:17:02;;;;;;;18.27;10.20;;;;;;;5.67;100.00;102326.09;4994314;28;20038;-81
2021/11/15 10:19:32;;;;;;;15.37;9.00;;;;;;;5.65;100.00;102331.31;4992785;28;20108;-81
2021/11/15 10:22:04;;;;;;;16.73;8.53;;;;;;;5.76;100.00;102321.09;5010675;28;20060;-82
2021/11/15 10:24:41;;;;;;;17.53;9.93;;;;;;;5.87;100.00;102316.09;4976960;28;20549;-82
2021/11/15 10:27:11;;;;;;;14.37;9.00;;;;;;;5.78;100.00;102316.75;5012316;28;20045;-84
2021/11/15 10:33:40;;;;;;;18.87;9.13;;;;;;;5.80;98.55;102312.47;5007479;28;20529;-83
2021/11/15 10:36:07;;;;;;;15.53;7.93;;;;;;;5.71;100.00;102309.56;4978269;28;20052;-85
2021/11/15 10:38:45;;;;;;;14.07;8.23;;;;;;;5.84;97.82;102303.81;4992575;28;20519;-82
2021/11/15 10:41:21;;;;;;;16.40;8.07;;;;;;;5.76;100.00;102309.72;4993774;28;20050;-83
2021/11/15 10:43:57;;;;;;;18.97;9.40;;;;;;;5.81;100.00;102305.50;5167734;23;20049;-82
2021/11/15 10:46:35;;;;;;;43.93;27.03;;;;;;;5.87;97.91;102313.47;5010044;28;20049;-81
2021/11/15 10:49:06;;;;;;;21.03;13.13;;;;;;;5.87;98.45;102319.63;4988737;28;20129;-83
2021/11/15 10:51:53;;;;;;;16.40;8.67;;;;;;;5.71;98.63;102319.19;4961389;28;20369;-83
2021/11/15 10:57:39;;;;;;;15.27;9.37;;;;;;;5.68;100.00;102311.25;4973168;28;20046;-81
2021/11/15 11:00:07;;;;;;;18.37;9.13;;;;;;;5.75;99.57;102310.56;4987183;28;20104;-83
2021/11/15 11:02:36;;;;;;;14.93;8.67;;;;;;;5.80;98.00;102315.09;4977120;28;20049;-83
2021/11/15 11:05:18;;;;;;;14.27;8.17;;;;;;;5.71;99.18;102308.69;4983186;28;20131;-86
2021/11/15 11:07:48;;;;;;;14.20;8.80;;;;;;;5.72;98.65;102305.22;4980707;28;20514;-87
2021/11/15 11:10:21;;;;;;;16.33;8.70;;;;;;;5.81;97.65;102297.63;4998047;28;20049;-86
2021/11/15 11:13:04;;;;;;;13.97;8.40;;;;;;;5.72;98.60;102294.72;5005431;28;20072;-86
2021/11/15 11:15:39;;;;;;;16.07;9.17;;;;;;;5.83;97.38;102288.94;4995044;28;20288;-89
2021/11/15 11:18:14;;;;;;;15.97;8.90;;;;;;;5.71;99.69;102292.97;4988935;28;20034;-88
2021/11/15 11:26:36;;;;;;;18.27;9.77;;;;;;;5.64;100.00;102303.31;5008513;28;20042;-88
2021/11/15 11:29:15;;;;;;;16.07;9.67;;;;;;;5.77;100.00;102299.25;4984519;28;20041;-89
2021/11/15 11:31:57;;;;;;;17.52;10.43;;;;;;;5.83;99.71;102278.44;4994422;28;20073;-88